Time;durP1;ratioP1;P1;durP2;ratioP2;P2;SDS_P1;SDS_P2;PMS_P1;PMS_P2;Temp;Humidity;BMP_temperature;BMP_pressure;BME280_temperature;BME280_humidity;BME280_pressure;Samples;Min_cycle;Max_cycle;Signal;HPM_P1;HPM_P2
2023/10/25 00:01:26;;;;;;;7.60;2.90;;;;;;;8.40;100.00;99142.00;5008385;28;20045;-47
2023/10/25 00:04:13;;;;;;;6.22;3.15;;;;;;;8.35;100.00;99145.06;5001992;28;20054;-45
2023/10/25 00:07:01;;;;;;;11.70;3.80;;;;;;;8.27;100.00;99154.38;5012098;28;20042;-47
2023/10/25 00:09:48;;;;;;;8.30;3.13;;;;;;;8.19;100.00;99152.63;4999289;28;20057;-45
2023/10/25 00:12:35;;;;;;;8.82;3.05;;;;;;;8.18;100.00;99140.81;5007338;28;20050;-45
2023/10/25 00:15:22;;;;;;;6.55;3.65;;;;;;;8.19;100.00;99141.59;5010874;28;20045;-46
2023/10/25 00:18:09;;;;;;;6.63;3.13;;;;;;;8.19;100.00;99141.59;5012273;28;20061;-48
2023/10/25 00:20:56;;;;;;;8.40;3.10;;;;;;;8.14;100.00;99147.44;5011563;28;20050;-46
2023/10/25 00:23:43;;;;;;;11.20;4.47;;;;;;;8.09;100.00;99159.56;5011656;28;20049;-48
2023/10/25 00:26:30;;;;;;;6.07;2.72;;;;;;;8.03;100.00;99154.72;5009525;28;20088;-45
2023/10/25 00:29:17;;;;;;;8.57;3.10;;;;;;;7.99;100.00;99160.94;5003657;28;20450;-47
2023/10/25 00:32:05;;;;;;;9.18;3.13;;;;;;;8.04;100.00;99154.38;5011082;28;20045;-47
2023/10/25 00:34:52;;;;;;;4.57;2.80;;;;;;;8.11;100.00;99161.94;5011514;28;20053;-46
2023/10/25 00:37:39;;;;;;;11.63;3.10;;;;;;;8.17;100.00;99149.47;5001160;28;20061;-45
2023/10/25 00:40:26;;;;;;;6.25;2.80;;;;;;;8.23;100.00;99143.28;5010358;28;20044;-47
2023/10/25 00:43:16;;;;;;;10.60;2.15;;;;;;;8.29;100.00;99150.09;5010324;28;20057;-50
2023/10/25 00:46:27;;;;;;;7.53;2.17;;;;;;;8.36;100.00;99154.94;5008876;28;20056;-50
2023/10/25 00:49:15;;;;;;;9.38;2.42;;;;;;;8.43;100.00;99164.13;5012855;28;20492;-49
2023/10/25 00:52:02;;;;;;;5.80;2.30;;;;;;;8.48;100.00;99165.75;4997708;28;20639;-45
2023/10/25 00:54:51;;;;;;;15.80;6.68;;;;;;;8.52;100.00;99153.63;5010759;28;20073;-46
2023/10/25 00:57:38;;;;;;;5.53;2.20;;;;;;;8.58;100.00;99151.34;5004954;28;20152;-50
2023/10/25 01:00:25;;;;;;;8.68;3.00;;;;;;;8.59;100.00;99152.94;4997809;28;20172;-46
2023/10/25 01:03:15;;;;;;;11.88;1.92;;;;;;;8.62;100.00;99160.47;5008515;28;20136;-52
2023/10/25 01:06:02;;;;;;;5.75;1.85;;;;;;;8.68;100.00;99164.53;5004020;28;20068;-51
2023/10/25 01:08:51;;;;;;;7.70;3.13;;;;;;;8.71;100.00;99171.25;5007809;28;20073;-45
2023/10/25 01:11:39;;;;;;;5.63;2.72;;;;;;;8.74;100.00;99171.28;5008822;28;20172;-48
2023/10/25 01:14:27;;;;;;;9.40;2.03;;;;;;;8.79;100.00;99176.50;5006369;28;20435;-47
2023/10/25 01:17:14;;;;;;;9.27;3.55;;;;;;;8.81;100.00;99179.69;5008219;28;20046;-51
2023/10/25 01:20:01;;;;;;;9.95;2.83;;;;;;;8.85;100.00;99177.78;5003979;28;20054;-49
2023/10/25 01:22:48;;;;;;;9.57;4.30;;;;;;;8.88;100.00;99174.28;4996762;28;20073;-49
2023/10/25 01:25:37;;;;;;;4.90;2.20;;;;;;;8.92;100.00;99180.63;5007873;28;20806;-48
2023/10/25 01:28:24;;;;;;;7.53;3.08;;;;;;;8.95;100.00;99179.88;5006420;28;20136;-47
2023/10/25 01:31:11;;;;;;;7.03;2.40;;;;;;;8.98;100.00;99186.63;4999009;28;20053;-49
2023/10/25 01:33:59;;;;;;;8.98;2.17;;;;;;;9.00;100.00;99195.34;5007036;28;20118;-47
2023/10/25 01:36:46;;;;;;;5.40;2.13;;;;;;;9.02;100.00;99199.34;5006399;28;20050;-51
2023/10/25 01:39:33;;;;;;;7.40;1.92;;;;;;;9.05;100.00;99189.50;5007693;28;20484;-46
2023/10/25 01:42:20;;;;;;;5.15;2.17;;;;;;;9.06;100.00;99194.66;5002674;28;20496;-45
2023/10/25 01:45:07;;;;;;;8.85;2.65;;;;;;;9.08;100.00;99199.81;5007146;28;20180;-45
2023/10/25 01:47:54;;;;;;;10.93;2.78;;;;;;;9.09;100.00;99196.66;5007658;28;20048;-45
2023/10/25 01:50:42;;;;;;;6.10;1.85;;;;;;;9.10;100.00;99195.50;5006744;28;20056;-45
2023/10/25 01:53:29;;;;;;;2.28;1.83;;;;;;;9.11;100.00;99183.28;5005396;28;20177;-45
2023/10/25 01:56:16;;;;;;;13.73;4.72;;;;;;;9.12;100.00;99182.13;5006469;28;20132;-47
2023/10/25 01:59:03;;;;;;;5.13;2.15;;;;;;;9.15;100.00;99184.13;5005557;28;20192;-45
2023/10/25 02:01:50;;;;;;;2.65;2.30;;;;;;;9.14;100.00;99174.25;5006690;28;20397;-45
2023/10/25 02:04:37;;;;;;;7.45;2.97;;;;;;;9.15;100.00;99177.81;5005634;28;20500;-46
2023/10/25 02:07:24;;;;;;;4.53;2.58;;;;;;;9.14;100.00;99174.25;5006474;28;20077;-45
2023/10/25 02:10:11;;;;;;;6.47;2.35;;;;;;;9.14;100.00;99177.00;5006016;28;20507;-45
2023/10/25 02:12:59;;;;;;;10.80;2.75;;;;;;;9.14;100.00;99182.53;5006726;28;20076;-46
2023/10/25 02:15:46;;;;;;;9.45;3.00;;;;;;;9.16;100.00;99180.19;5003311;28;20037;-45
2023/10/25 02:18:33;;;;;;;9.88;3.63;;;;;;;9.17;100.00;99176.28;5001080;28;20129;-45
2023/10/25 02:21:20;;;;;;;7.88;2.70;;;;;;;9.17;100.00;99162.47;5007025;28;20064;-45
2023/10/25 02:24:10;;;;;;;10.07;3.97;;;;;;;9.15;100.00;99156.53;5006293;28;20049;-46
2023/10/25 02:26:57;;;;;;;11.02;2.45;;;;;;;9.14;100.00;99160.44;5004823;28;20053;-45
2023/10/25 02:29:44;;;;;;;6.10;2.53;;;;;;;9.12;100.00;99154.50;5005270;28;20515;-45
2023/10/25 02:32:31;;;;;;;11.80;3.38;;;;;;;9.12;100.00;99153.72;5004961;28;20077;-45
2023/10/25 02:35:19;;;;;;;9.05;3.53;;;;;;;9.10;100.00;99148.56;5005701;28;20093;-45
2023/10/25 02:38:06;;;;;;;7.70;4.07;;;;;;;9.11;100.00;99161.19;5005242;28;20115;-45
2023/10/25 02:40:53;;;;;;;7.75;3.85;;;;;;;9.12;100.00;99157.28;5001838;28;20050;-45
2023/10/25 02:43:40;;;;;;;13.63;5.45;;;;;;;9.14;100.00;99157.69;5007035;28;20085;-46
2023/10/25 02:46:27;;;;;;;10.10;4.47;;;;;;;9.15;100.00;99152.97;5003858;28;20259;-48
2023/10/25 02:49:14;;;;;;;13.95;4.05;;;;;;;9.16;100.00;99152.59;5006019;28;20057;-46
2023/10/25 02:52:01;;;;;;;13.65;4.10;;;;;;;9.17;100.00;99147.84;5002665;28;20065;-45
2023/10/25 02:54:48;;;;;;;15.23;5.72;;;;;;;9.18;100.00;99149.47;4999785;28;20480;-45
2023/10/25 02:57:35;;;;;;;10.15;4.82;;;;;;;9.19;100.00;99146.31;5005513;28;20388;-45
2023/10/25 03:03:00;;;;;;;11.30;4.43;;;;;;;9.22;100.00;99146.72;4986713;28;20277;-45
2023/10/25 03:05:47;;;;;;;10.90;4.13;;;;;;;9.24;100.00;99138.88;4988323;28;20208;-45
2023/10/25 03:08:34;;;;;;;9.60;4.50;;;;;;;9.25;100.00;99137.69;4980582;28;20046;-46
2023/10/25 03:11:21;;;;;;;7.95;3.80;;;;;;;9.27;100.00;99146.41;4979564;28;20095;-45
2023/10/25 03:14:08;;;;;;;14.77;5.18;;;;;;;9.26;100.00;99139.31;5001174;28;20404;-46
2023/10/25 03:16:55;;;;;;;10.80;4.40;;;;;;;9.26;100.00;99144.81;4996519;28;20045;-46
2023/10/25 03:19:42;;;;;;;21.52;5.82;;;;;;;9.27;100.00;99138.09;4980414;28;20046;-49
2023/10/25 03:22:31;;;;;;;15.73;4.80;;;;;;;9.30;100.00;99140.13;4998728;28;20530;-47
2023/10/25 03:25:19;;;;;;;9.43;4.28;;;;;;;9.31;100.00;99133.44;4991460;28;20248;-45
2023/10/25 03:28:06;;;;;;;13.02;4.85;;;;;;;9.32;100.00;99135.03;4995727;28;20053;-47
2023/10/25 03:30:53;;;;;;;11.80;5.07;;;;;;;9.32;100.00;99135.81;4988350;28;20046;-45
2023/10/25 03:33:40;;;;;;;7.80;4.10;;;;;;;9.33;100.00;99133.84;4998789;28;20458;-45
2023/10/25 03:36:27;;;;;;;12.20;5.72;;;;;;;9.35;100.00;99131.50;4999641;28;20077;-45
2023/10/25 03:39:15;;;;;;;10.88;4.43;;;;;;;9.34;100.00;99125.22;4985986;28;20520;-45
2023/10/25 03:42:03;;;;;;;11.00;4.88;;;;;;;9.35;100.00;99115.75;4987231;28;20046;-45
2023/10/25 03:44:50;;;;;;;9.60;5.18;;;;;;;9.35;100.00;99121.25;4994976;28;20049;-45
2023/10/25 03:47:37;;;;;;;16.23;6.85;;;;;;;9.37;100.00;99123.66;4995925;28;20120;-46
2023/10/25 03:50:25;;;;;;;12.43;6.00;;;;;;;9.37;100.00;99123.66;4981465;28;20156;-45
2023/10/25 03:53:12;;;;;;;13.82;5.30;;;;;;;9.36;100.00;99122.06;4997475;28;20498;-45
2023/10/25 03:55:59;;;;;;;14.15;5.95;;;;;;;9.37;100.00;99123.66;4989429;28;20112;-46
2023/10/25 03:58:46;;;;;;;11.20;5.20;;;;;;;9.35;100.00;99114.94;4991431;28;20455;-45
2023/10/25 04:01:33;;;;;;;14.57;5.60;;;;;;;9.34;100.00;99111.41;4995428;28;20386;-45
2023/10/25 04:04:20;;;;;;;11.57;5.63;;;;;;;9.33;100.00;99106.25;4987347;28;20189;-45
2023/10/25 04:07:11;;;;;;;13.02;5.13;;;;;;;9.29;100.00;99100.69;4986743;28;20046;-46
2023/10/25 04:09:58;;;;;;;12.77;5.30;;;;;;;9.25;100.00;99091.56;4987564;28;20046;-46
2023/10/25 04:12:46;;;;;;;13.13;5.93;;;;;;;9.18;100.00;99089.53;4984143;28;20065;-50
2023/10/25 04:15:35;;;;;;;20.73;6.68;;;;;;;9.12;100.00;99087.44;4990059;28;20054;-45
2023/10/25 04:18:24;;;;;;;12.90;6.45;;;;;;;9.04;100.00;99080.25;4989297;28;20054;-48
2023/10/25 04:21:12;;;;;;;11.05;6.75;;;;;;;8.97;100.00;99078.22;4976117;28;20051;-45
2023/10/25 04:24:01;;;;;;;17.08;8.45;;;;;;;8.93;100.00;99065.50;4988356;28;20125;-45
2023/10/25 04:26:48;;;;;;;14.65;7.85;;;;;;;8.88;100.00;99068.59;4991148;28;20047;-47
2023/10/25 04:29:35;;;;;;;18.95;8.00;;;;;;;8.83;100.00;99071.69;4989098;28;20525;-47
2023/10/25 04:32:23;;;;;;;32.90;9.70;;;;;;;8.77;100.00;99060.19;4997021;28;20514;-46
2023/10/25 04:35:10;;;;;;;18.77;8.88;;;;;;;8.65;100.00;99059.63;5001624;28;20566;-47
2023/10/25 04:37:57;;;;;;;21.75;8.23;;;;;;;8.54;100.00;99049.25;4982506;28;20042;-45
2023/10/25 04:40:44;;;;;;;20.70;7.85;;;;;;;8.46;100.00;99057.78;4992861;28;20050;-45
2023/10/25 04:43:31;;;;;;;16.52;8.00;;;;;;;8.43;100.00;99064.03;4990138;28;20407;-46
2023/10/25 04:46:18;;;;;;;17.95;9.00;;;;;;;8.42;100.00;99057.72;5005208;28;20038;-46
2023/10/25 04:49:06;;;;;;;17.73;8.80;;;;;;;8.42;100.00;99046.69;4989564;28;20902;-50
2023/10/25 04:51:53;;;;;;;16.55;9.18;;;;;;;8.45;100.00;99050.66;4989709;28;20049;-45
2023/10/25 04:54:43;;;;;;;19.58;8.98;;;;;;;8.44;100.00;99049.91;5003546;28;20064;-45
2023/10/25 04:57:33;;;;;;;20.73;9.00;;;;;;;8.45;100.00;99040.44;4990279;28;20050;-45
2023/10/25 05:00:20;;;;;;;19.20;9.18;;;;;;;8.45;100.00;99032.16;4993475;28;20046;-45
2023/10/25 05:03:10;;;;;;;17.92;9.68;;;;;;;8.43;100.00;99034.50;4992386;28;20103;-45
2023/10/25 05:06:03;;;;;;;24.55;11.32;;;;;;;8.41;100.00;99039.59;4998833;28;20054;-46
2023/10/25 05:08:50;;;;;;;24.88;11.43;;;;;;;8.39;100.00;99038.38;4983140;28;20042;-45
2023/10/25 05:11:41;;;;;;;20.85;10.88;;;;;;;8.38;100.00;99028.50;4991106;28;20150;-45
2023/10/25 05:14:28;;;;;;;27.70;12.15;;;;;;;8.37;100.00;99029.66;4991837;28;20096;-47
2023/10/25 05:17:15;;;;;;;25.05;11.18;;;;;;;8.34;100.00;99025.69;4992003;28;20054;-45
2023/10/25 05:20:07;;;;;;;34.42;11.70;;;;;;;8.31;100.00;99028.41;5000873;28;20053;-46
2023/10/25 05:22:55;;;;;;;18.90;10.80;;;;;;;8.24;100.00;99020.00;4985868;28;20053;-48
2023/10/25 05:25:43;;;;;;;35.47;13.15;;;;;;;8.20;100.00;99019.16;4988744;28;20384;-47
2023/10/25 05:28:31;;;;;;;20.73;10.48;;;;;;;8.14;100.00;99006.84;4990072;28;20042;-47
2023/10/25 05:31:19;;;;;;;25.50;11.93;;;;;;;8.09;100.00;99016.25;4982964;28;20058;-48
2023/10/25 05:34:07;;;;;;;26.00;11.52;;;;;;;8.06;100.00;99014.22;4986375;28;20092;-47
2023/10/25 05:36:55;;;;;;;29.23;11.98;;;;;;;8.02;100.00;99010.63;4980673;28;20050;-45
2023/10/25 05:39:43;;;;;;;38.75;15.00;;;;;;;7.97;100.00;99011.72;4986641;28;20057;-49
2023/10/25 05:42:38;;;;;;;22.52;12.10;;;;;;;7.92;100.00;99009.28;4987986;28;20042;-47
2023/10/25 05:45:25;;;;;;;22.27;12.10;;;;;;;7.89;100.00;99011.97;4990028;28;20620;-47
2023/10/25 05:48:15;;;;;;;25.67;14.57;;;;;;;7.91;100.00;99004.97;4989498;28;20050;-47
2023/10/25 05:51:05;;;;;;;25.55;14.13;;;;;;;7.94;100.00;98998.69;4983051;28;20496;-50
2023/10/25 05:53:53;;;;;;;27.90;15.07;;;;;;;7.96;100.00;98998.31;4984629;28;20054;-45
2023/10/25 05:56:40;;;;;;;37.67;16.95;;;;;;;7.97;100.00;99003.47;4992066;28;20124;-47
2023/10/25 05:59:27;;;;;;;34.95;15.95;;;;;;;7.98;100.00;99010.56;4987547;28;20145;-47
2023/10/25 06:02:17;;;;;;;30.92;17.00;;;;;;;7.99;100.00;98998.34;4986708;28;20178;-45
2023/10/25 06:05:10;;;;;;;36.38;19.42;;;;;;;8.02;100.00;98999.59;4991472;28;20077;-44
2023/10/25 06:07:59;;;;;;;29.13;17.05;;;;;;;8.05;100.00;99003.59;4993828;28;20062;-45
2023/10/25 06:10:48;;;;;;;37.45;17.88;;;;;;;8.07;100.00;99009.50;4989208;28;20442;-45
2023/10/25 06:13:35;;;;;;;32.47;16.98;;;;;;;8.08;100.00;99017.41;4994073;28;20046;-45
2023/10/25 06:16:22;;;;;;;36.83;15.85;;;;;;;8.09;100.00;99005.22;4980099;28;20558;-45
2023/10/25 06:19:09;;;;;;;31.52;15.68;;;;;;;8.10;100.00;99011.53;4991261;28;20049;-45
2023/10/25 06:21:57;;;;;;;40.35;17.35;;;;;;;8.09;100.00;99023.72;4993680;28;20055;-45
2023/10/25 06:24:44;;;;;;;25.88;14.05;;;;;;;8.03;100.00;99023.22;4976567;28;20349;-44
2023/10/25 06:27:31;;;;;;;36.17;15.60;;;;;;;7.99;100.00;99025.91;4986950;28;20041;-46
2023/10/25 06:30:18;;;;;;;30.15;16.48;;;;;;;7.92;100.00;99022.25;4992463;28;20072;-46
2023/10/25 06:33:05;;;;;;;37.70;14.48;;;;;;;7.83;100.00;99024.50;4980476;28;20142;-47
2023/10/25 06:35:58;;;;;;;32.53;16.17;;;;;;;7.77;100.00;99032.25;4983544;28;20511;-45
2023/10/25 06:38:45;;;;;;;38.70;16.50;;;;;;;7.75;100.00;99031.84;4973479;28;20427;-45
2023/10/25 06:41:34;;;;;;;56.47;20.67;;;;;;;7.73;100.00;99036.91;4984742;28;20534;-45
2023/10/25 06:44:22;;;;;;;36.35;18.52;;;;;;;7.73;100.00;99047.16;4984989;28;20600;-45
2023/10/25 06:47:09;;;;;;;34.85;17.27;;;;;;;7.75;100.00;99036.56;4986496;28;20116;-52
2023/10/25 06:49:57;;;;;;;36.35;17.13;;;;;;;7.78;100.00;99044.84;4983019;28;20065;-45
2023/10/25 06:52:44;;;;;;;31.00;17.27;;;;;;;7.79;100.00;99038.19;4977653;28;20045;-45
2023/10/25 06:55:32;;;;;;;27.20;14.63;;;;;;;7.80;100.00;99048.06;4981491;28;20864;-45
2023/10/25 06:58:19;;;;;;;33.35;15.85;;;;;;;7.80;100.00;99033.50;4982407;28;20050;-45
2023/10/25 07:01:11;;;;;;;27.95;15.63;;;;;;;7.84;100.00;99042.59;4983043;28;20042;-50
2023/10/25 07:03:59;;;;;;;43.95;18.30;;;;;;;7.89;100.00;99045.84;4995692;28;20050;-44
2023/10/25 07:06:47;;;;;;;26.27;15.38;;;;;;;7.94;100.00;99042.78;4993103;28;20782;-45
2023/10/25 07:09:34;;;;;;;28.20;14.75;;;;;;;7.96;100.00;99045.97;4984534;28;20495;-45
2023/10/25 07:12:23;;;;;;;26.70;14.70;;;;;;;7.98;100.00;99045.59;4985900;28;20388;-45
2023/10/25 07:15:11;;;;;;;24.55;11.90;;;;;;;7.98;100.00;99051.91;4987763;28;20056;-44
2023/10/25 07:17:58;;;;;;;28.67;14.10;;;;;;;7.99;100.00;99056.22;4974313;28;20057;-49
2023/10/25 07:20:45;;;;;;;23.98;13.18;;;;;;;7.99;100.00;99050.72;4982536;28;20559;-45
2023/10/25 07:23:33;;;;;;;24.65;12.55;;;;;;;7.99;100.00;99047.97;4985826;28;20050;-44
2023/10/25 07:26:20;;;;;;;24.30;12.07;;;;;;;7.96;100.00;99050.69;4976694;28;20462;-45
2023/10/25 07:29:07;;;;;;;35.92;14.32;;;;;;;7.91;100.00;99048.25;4988688;28;20068;-44
2023/10/25 07:31:55;;;;;;;22.52;13.75;;;;;;;7.91;100.00;99048.25;4984698;28;20039;-44
2023/10/25 07:34:42;;;;;;;24.38;13.60;;;;;;;7.95;100.00;99047.13;4986661;28;20054;-45
2023/10/25 07:37:30;;;;;;;28.27;14.68;;;;;;;8.04;100.00;99057.09;4988231;28;20050;-45
2023/10/25 07:40:17;;;;;;;24.88;12.48;;;;;;;8.08;100.00;99058.75;4983512;28;20499;-48
2023/10/25 07:43:04;;;;;;;18.67;11.52;;;;;;;8.10;100.00;99058.38;4986784;28;20066;-45
2023/10/25 07:45:51;;;;;;;23.52;12.25;;;;;;;8.10;100.00;99055.63;4998080;28;20451;-45
2023/10/25 07:48:42;;;;;;;27.77;12.73;;;;;;;8.08;100.00;99053.22;4978869;28;20125;-45
2023/10/25 07:51:29;;;;;;;22.80;13.07;;;;;;;8.07;100.00;99064.63;4983559;28;20069;-46
2023/10/25 07:54:16;;;;;;;21.15;12.10;;;;;;;8.04;100.00;99062.63;4984624;28;20050;-45
2023/10/25 07:57:03;;;;;;;18.20;11.18;;;;;;;7.99;100.00;99055.47;4995879;28;20050;-45
2023/10/25 07:59:58;;;;;;;18.08;11.05;;;;;;;7.97;100.00;99052.25;4989526;28;20050;-44
2023/10/25 08:02:45;;;;;;;20.70;10.95;;;;;;;7.96;100.00;99057.00;4988689;28;20141;-45
2023/10/25 08:05:32;;;;;;;23.15;12.20;;;;;;;7.96;100.00;99048.72;4992114;28;20057;-44
2023/10/25 08:08:19;;;;;;;27.15;11.23;;;;;;;7.99;100.00;99058.22;4980562;28;20057;-44
2023/10/25 08:11:07;;;;;;;17.67;10.02;;;;;;;8.03;100.00;99059.06;4989252;28;20653;-45
2023/10/25 08:13:54;;;;;;;15.45;10.65;;;;;;;8.06;100.00;99061.06;4987718;28;20407;-47
2023/10/25 08:16:42;;;;;;;17.15;9.57;;;;;;;8.12;100.00;99058.81;4995325;28;20488;-47
2023/10/25 08:19:30;;;;;;;14.45;9.38;;;;;;;8.17;100.00;99066.75;4990786;28;20170;-44
2023/10/25 08:22:17;;;;;;;19.42;10.90;;;;;;;8.21;100.00;99062.09;4997806;28;20167;-47
2023/10/25 08:25:08;;;;;;;13.90;9.25;;;;;;;8.25;100.00;99051.91;4989093;28;20129;-44
2023/10/25 08:27:56;;;;;;;15.93;10.90;;;;;;;8.27;100.00;99049.63;4977588;28;20045;-45
2023/10/25 08:30:43;;;;;;;20.80;10.40;;;;;;;8.30;100.00;99059.91;4986170;28;20137;-45
2023/10/25 08:33:30;;;;;;;18.95;10.30;;;;;;;8.35;100.00;99051.31;4994171;28;20116;-44
2023/10/25 08:36:17;;;;;;;21.08;12.30;;;;;;;8.41;100.00;99058.09;4989358;28;20185;-49
2023/10/25 08:39:04;;;;;;;16.38;9.05;;;;;;;8.51;100.00;99057.47;4985010;28;20058;-45
2023/10/25 08:41:52;;;;;;;16.23;10.07;;;;;;;8.62;100.00;99050.13;4987150;28;20054;-45
2023/10/25 08:44:43;;;;;;;14.90;9.05;;;;;;;8.77;100.00;99051.91;4988321;28;20050;-44
2023/10/25 08:47:30;;;;;;;10.75;7.30;;;;;;;8.93;100.00;99043.44;4980894;28;20707;-45
2023/10/25 08:50:21;;;;;;;12.38;8.57;;;;;;;9.05;100.00;99043.97;4987284;28;20058;-45
2023/10/25 08:53:09;;;;;;;12.07;7.57;;;;;;;9.11;100.00;99053.53;4991179;28;20047;-44
2023/10/25 08:55:57;;;;;;;10.90;8.30;;;;;;;9.18;100.00;99053.63;4993724;28;20197;-48
2023/10/25 08:58:44;;;;;;;10.95;7.70;;;;;;;9.23;100.00;99055.25;4982391;28;20096;-44
2023/10/25 09:01:31;;;;;;;15.20;8.18;;;;;;;9.28;100.00;99059.63;4990353;28;20484;-44
2023/10/25 09:04:18;;;;;;;9.93;5.78;;;;;;;9.33;100.00;99064.81;4996350;28;20555;-46
2023/10/25 09:07:34;;;;;;;14.05;7.28;;;;;;;9.37;100.00;99057.38;4988136;28;20583;-46
2023/10/25 09:10:24;;;;;;;15.07;7.35;;;;;;;9.40;100.00;99068.44;4991938;28;20547;-45
2023/10/25 09:13:13;;;;;;;12.32;6.05;;;;;;;9.46;100.00;99057.84;4993817;28;20128;-48
2023/10/25 09:16:04;;;;;;;10.32;6.10;;;;;;;9.47;100.00;99056.69;4987779;28;20137;-51
2023/10/25 09:18:51;;;;;;;12.85;5.90;;;;;;;9.50;100.00;99062.25;4987997;28;20100;-46
2023/10/25 09:21:38;;;;;;;9.32;5.47;;;;;;;9.54;100.00;99063.09;5002595;28;20045;-45
2023/10/25 09:24:25;;;;;;;6.30;5.18;;;;;;;9.58;100.00;99052.84;4995100;28;20500;-45
2023/10/25 09:27:13;;;;;;;8.57;4.88;;;;;;;9.63;100.00;99065.53;4994270;28;20058;-48
2023/10/25 09:30:14;;;;;;;5.75;4.85;;;;;;;9.68;100.00;99065.19;4984909;28;20089;-46
2023/10/25 09:33:04;;;;;;;6.75;2.95;;;;;;;9.71;100.00;99064.44;4992200;28;20393;-45
2023/10/25 09:35:53;;;;;;;4.35;3.53;;;;;;;9.72;100.00;99043.91;4986767;28;20185;-45
2023/10/25 09:38:40;;;;;;;6.57;4.40;;;;;;;9.70;100.00;99054.56;4986958;28;20152;-44
2023/10/25 09:41:32;;;;;;;13.95;9.73;;;;;;;9.69;100.00;99042.69;4980983;28;20053;-43
2023/10/25 09:44:23;;;;;;;14.98;11.90;;;;;;;9.78;100.00;99045.97;5000124;28;20053;-44
2023/10/25 09:47:11;;;;;;;15.18;10.70;;;;;;;9.89;100.00;99040.53;4986313;28;20062;-48
2023/10/25 09:50:19;;;;;;;21.48;11.25;;;;;;;9.96;100.00;99034.25;4993793;28;20117;-45
2023/10/25 09:53:30;;;;;;;25.80;13.20;;;;;;;10.00;100.00;99041.41;4982256;28;20062;-49
2023/10/25 09:56:18;;;;;;;14.07;9.68;;;;;;;10.00;100.00;99038.66;4988997;28;20538;-51
2023/10/25 09:59:10;;;;;;;12.25;8.85;;;;;;;10.01;100.00;99033.88;4994773;28;20211;-45
2023/10/25 10:01:59;;;;;;;;;;;;;;;9.97;100.00;99031.13;4991559;28;20061;-45
2023/10/25 10:05:01;;;;;;;18.73;10.40;;;;;;;10.02;100.00;99033.53;4985820;28;19926;-44
2023/10/25 10:08:00;;;;;;;15.43;10.30;;;;;;;10.08;100.00;99031.19;4983723;28;20078;-47
2023/10/25 10:10:58;;;;;;;15.95;10.55;;;;;;;10.13;100.00;99031.66;4984937;28;20076;-45
2023/10/25 10:13:45;;;;;;;19.50;12.38;;;;;;;10.15;100.00;99036.81;4987671;28;20479;-47
2023/10/25 10:16:32;;;;;;;20.13;12.95;;;;;;;10.16;100.00;99041.97;4988214;28;20548;-50
2023/10/25 10:19:21;;;;;;;16.85;10.43;;;;;;;10.20;100.00;99034.47;4992354;28;20057;-46
2023/10/25 10:22:13;;;;;;;18.98;12.05;;;;;;;10.26;100.00;99037.69;4987396;28;20095;-45
2023/10/25 10:25:00;;;;;;;;;;;;;;;10.32;100.00;99039.72;4977771;28;20415;-44
2023/10/25 10:27:52;;;;;;;15.73;9.95;;;;;;;10.45;100.00;99026.34;4978835;28;19922;-44
2023/10/25 10:30:41;;;;;;;22.00;10.57;;;;;;;10.53;100.00;99030.75;4983156;28;20042;-48
2023/10/25 10:33:28;;;;;;;16.20;10.30;;;;;;;10.57;100.00;99020.47;4986954;28;20042;-45
2023/10/25 10:36:26;;;;;;;12.73;8.90;;;;;;;10.70;100.00;99023.72;4984469;28;20046;-45
2023/10/25 10:39:17;;;;;;;18.50;10.07;;;;;;;10.83;100.00;99016.66;4974007;28;20054;-45
2023/10/25 10:42:05;;;;;;;19.73;10.07;;;;;;;10.90;100.00;99016.72;4988280;28;20094;-45
2023/10/25 10:44:52;;;;;;;15.85;9.00;;;;;;;10.94;100.00;99012.75;4987752;28;20820;-45
2023/10/25 10:47:43;;;;;;;19.85;9.27;;;;;;;11.01;100.00;99012.78;4986231;28;20520;-46
2023/10/25 10:50:31;;;;;;;16.80;9.07;;;;;;;11.06;100.00;99008.06;4987410;28;20158;-46
2023/10/25 10:53:18;;;;;;;17.65;10.02;;;;;;;11.11;100.00;99014.03;4986062;28;20441;-51
2023/10/25 10:56:05;;;;;;;12.07;7.53;;;;;;;11.14;100.00;99010.47;4980560;28;20050;-45
2023/10/25 10:58:53;;;;;;;13.23;7.85;;;;;;;11.16;100.00;98999.00;4987729;28;20047;-45
2023/10/25 11:01:40;;;;;;;15.55;9.52;;;;;;;11.18;100.00;99000.19;4999682;28;20419;-45
2023/10/25 11:04:27;;;;;;;12.30;7.18;;;;;;;11.19;100.00;99010.09;4992914;28;20058;-45
2023/10/25 11:07:17;;;;;;;10.40;6.97;;;;;;;11.22;100.00;99000.19;4980725;28;20415;-59
2023/10/25 11:10:04;;;;;;;8.30;6.07;;;;;;;11.21;100.00;98999.41;4979655;28;20060;-44
2023/10/25 11:12:51;;;;;;;11.43;7.63;;;;;;;11.18;100.00;98996.63;4990988;28;20273;-44
2023/10/25 11:15:38;;;;;;;11.73;7.05;;;;;;;11.13;100.00;98992.25;4985425;28;20487;-46
2023/10/25 11:18:26;;;;;;;8.00;5.35;;;;;;;11.16;100.00;98990.69;4984909;28;20467;-47
2023/10/25 11:21:14;;;;;;;9.40;5.38;;;;;;;11.23;100.00;98985.94;4992218;28;20173;-50
2023/10/25 11:24:06;;;;;;;8.85;4.88;;;;;;;11.31;100.00;98993.09;4986900;28;20842;-46
2023/10/25 11:26:54;;;;;;;;;;;;;;;11.37;100.00;98982.41;4990203;28;20053;-50
2023/10/25 11:29:41;;;;;;;12.98;5.20;;;;;;;11.41;100.00;98978.47;4988997;28;19925;-47
2023/10/25 11:32:29;;;;;;;9.77;6.47;;;;;;;11.43;100.00;98965.03;4989647;28;20196;-46
2023/10/25 11:35:24;;;;;;;7.57;5.00;;;;;;;11.42;100.00;98971.75;4981386;28;20639;-45
2023/10/25 11:38:12;;;;;;;7.05;3.95;;;;;;;11.44;100.00;98960.25;4982978;28;20688;-47
2023/10/25 11:40:59;;;;;;;7.30;4.40;;;;;;;11.42;100.00;98948.78;4992649;28;20516;-45
2023/10/25 11:43:46;;;;;;;8.30;4.55;;;;;;;11.48;100.00;98955.53;4973501;28;20132;-46
2023/10/25 11:46:38;;;;;;;12.00;7.15;;;;;;;11.53;100.00;98955.13;4982718;28;20050;-46
2023/10/25 11:49:25;;;;;;;10.95;6.72;;;;;;;11.63;100.00;98954.34;4982891;28;20500;-53
2023/10/25 11:52:12;;;;;;;11.25;5.90;;;;;;;11.72;100.00;98960.31;4985208;28;20074;-45
2023/10/25 11:55:01;;;;;;;5.75;5.03;;;;;;;11.71;100.00;98955.16;4983666;28;20346;-44
2023/10/25 11:57:48;;;;;;;7.57;5.22;;;;;;;11.66;100.00;98949.97;4985001;28;20060;-46
2023/10/25 12:00:35;;;;;;;9.98;5.30;;;;;;;11.58;100.00;98947.22;4984977;28;20416;-45
2023/10/25 12:03:22;;;;;;;10.95;5.45;;;;;;;11.55;100.00;98941.66;4981621;28;20096;-45
2023/10/25 12:06:11;;;;;;;9.48;6.35;;;;;;;11.51;100.00;98936.13;4983632;28;20492;-45
2023/10/25 12:08:59;;;;;;;6.45;4.47;;;;;;;11.51;100.00;98930.59;4984268;28;20046;-45
2023/10/25 12:11:46;;;;;;;6.38;4.95;;;;;;;11.54;100.00;98932.53;4984197;28;20045;-44
2023/10/25 12:14:33;;;;;;;8.20;4.78;;;;;;;11.58;100.00;98929.78;4969052;28;20066;-51
2023/10/25 12:17:20;;;;;;;5.65;4.80;;;;;;;11.61;100.00;98929.81;4982688;28;20104;-46
2023/10/25 12:20:08;;;;;;;8.93;6.07;;;;;;;11.69;100.00;98925.06;4984361;28;20054;-45
2023/10/25 12:23:15;;;;;;;7.18;4.13;;;;;;;11.76;100.00;98919.50;4983662;28;20104;-47
2023/10/25 12:26:03;;;;;;;20.83;5.90;;;;;;;11.79;100.00;98920.69;4972297;28;20705;-48
2023/10/25 12:28:50;;;;;;;7.63;5.43;;;;;;;11.79;100.00;98915.16;4983890;28;20038;-46
2023/10/25 12:31:37;;;;;;;8.85;5.50;;;;;;;11.76;100.00;98910.41;4984156;28;20050;-45
2023/10/25 12:34:24;;;;;;;8.23;4.70;;;;;;;11.70;100.00;98907.25;4975283;28;20057;-48
2023/10/25 12:37:11;;;;;;;8.50;4.30;;;;;;;11.67;100.00;98898.91;4984547;28;20500;-45
2023/10/25 12:39:58;;;;;;;5.82;4.05;;;;;;;11.70;100.00;98904.50;4983278;28;20054;-45
2023/10/25 12:42:46;;;;;;;6.15;3.55;;;;;;;11.75;100.00;98901.31;4983141;28;20485;-44
2023/10/25 12:45:33;;;;;;;3.92;3.33;;;;;;;11.87;100.00;98902.88;4971914;28;20039;-45
2023/10/25 12:48:20;;;;;;;4.55;3.70;;;;;;;12.00;100.00;98898.47;4983186;28;20051;-45
2023/10/25 12:51:07;;;;;;;5.38;3.80;;;;;;;12.11;100.00;98904.81;4984492;28;20046;-45
2023/10/25 12:53:54;;;;;;;11.73;4.57;;;;;;;12.16;100.00;98901.63;4987974;28;20493;-45
2023/10/25 12:56:41;;;;;;;9.38;3.67;;;;;;;12.27;100.00;98896.84;4975460;28;20120;-45
2023/10/25 12:59:29;;;;;;;5.05;2.88;;;;;;;12.31;100.00;98889.28;4987285;28;20061;-44
2023/10/25 13:02:16;;;;;;;10.88;4.72;;;;;;;12.34;100.00;98882.16;4986869;28;20046;-46
2023/10/25 13:05:04;;;;;;;5.65;2.92;;;;;;;12.33;100.00;98886.13;4974902;28;20160;-45